sensor_id;sensor_type;location;lat;lon;timestamp;temperature;humidity
23371;DHT22;11858;51.056;3.712;2023-01-19T00:02:08;3.40;99.90
23371;DHT22;11858;51.056;3.712;2023-01-19T00:04:35;3.50;99.90
23371;DHT22;11858;51.056;3.712;2023-01-19T00:07:28;3.40;99.90
23371;DHT22;11858;51.056;3.712;2023-01-19T00:09:58;3.30;99.90
23371;DHT22;11858;51.056;3.712;2023-01-19T00:12:29;3.20;99.90
23371;DHT22;11858;51.056;3.712;2023-01-19T00:15:05;3.10;99.90
23371;DHT22;11858;51.056;3.712;2023-01-19T00:17:40;3.20;99.90
23371;DHT22;11858;51.056;3.712;2023-01-19T00:20:12;3.10;99.90
23371;DHT22;11858;51.056;3.712;2023-01-19T00:22:42;3.10;99.90
23371;DHT22;11858;51.056;3.712;2023-01-19T00:25:29;3.00;99.90
23371;DHT22;11858;51.056;3.712;2023-01-19T00:28:01;3.10;99.90
23371;DHT22;11858;51.056;3.712;2023-01-19T00:40:49;3.10;99.90
23371;DHT22;11858;51.056;3.712;2023-01-19T00:43:15;2.90;99.90
23371;DHT22;11858;51.056;3.712;2023-01-19T00:45:41;2.80;99.90
23371;DHT22;11858;51.056;3.712;2023-01-19T00:48:07;2.70;99.90
23371;DHT22;11858;51.056;3.712;2023-01-19T00:50:34;2.70;99.90
23371;DHT22;11858;51.056;3.712;2023-01-19T00:53:00;2.80;99.90
23371;DHT22;11858;51.056;3.712;2023-01-19T00:55:26;2.80;99.90
23371;DHT22;11858;51.056;3.712;2023-01-19T00:57:55;2.80;99.90
23371;DHT22;11858;51.056;3.712;2023-01-19T01:00:21;2.90;99.90
23371;DHT22;11858;51.056;3.712;2023-01-19T01:02:49;2.70;99.90
23371;DHT22;11858;51.056;3.712;2023-01-19T01:05:15;2.60;99.90
23371;DHT22;11858;51.056;3.712;2023-01-19T01:07:41;2.60;99.90
23371;DHT22;11858;51.056;3.712;2023-01-19T01:10:20;2.70;99.90
23371;DHT22;11858;51.056;3.712;2023-01-19T01:12:47;2.80;99.90
23371;DHT22;11858;51.056;3.712;2023-01-19T01:15:14;2.70;99.90
23371;DHT22;11858;51.056;3.712;2023-01-19T01:17:40;2.80;99.90
23371;DHT22;11858;51.056;3.712;2023-01-19T01:20:23;2.70;99.90
23371;DHT22;11858;51.056;3.712;2023-01-19T01:22:51;2.70;99.90
23371;DHT22;11858;51.056;3.712;2023-01-19T01:25:19;2.80;99.90
23371;DHT22;11858;51.056;3.712;2023-01-19T01:27:47;2.90;99.90
23371;DHT22;11858;51.056;3.712;2023-01-19T01:30:13;2.90;99.90
23371;DHT22;11858;51.056;3.712;2023-01-19T01:32:40;2.80;99.90
23371;DHT22;11858;51.056;3.712;2023-01-19T01:35:06;2.80;99.90
23371;DHT22;11858;51.056;3.712;2023-01-19T01:37:34;2.80;99.90
23371;DHT22;11858;51.056;3.712;2023-01-19T01:39:59;2.80;99.90
23371;DHT22;11858;51.056;3.712;2023-01-19T01:42:29;2.80;99.90
23371;DHT22;11858;51.056;3.712;2023-01-19T01:44:57;2.90;99.90
23371;DHT22;11858;51.056;3.712;2023-01-19T01:47:41;2.80;99.90
23371;DHT22;11858;51.056;3.712;2023-01-19T01:53:07;2.70;99.90
23371;DHT22;11858;51.056;3.712;2023-01-19T01:55:31;2.70;99.90
23371;DHT22;11858;51.056;3.712;2023-01-19T01:58:02;2.80;99.90
23371;DHT22;11858;51.056;3.712;2023-01-19T02:00:30;2.70;99.90
23371;DHT22;11858;51.056;3.712;2023-01-19T02:03:20;2.80;99.90
23371;DHT22;11858;51.056;3.712;2023-01-19T02:05:47;2.80;99.90
23371;DHT22;11858;51.056;3.712;2023-01-19T02:08:25;2.90;99.90
23371;DHT22;11858;51.056;3.712;2023-01-19T02:11:12;3.00;99.90
23371;DHT22;11858;51.056;3.712;2023-01-19T02:13:56;3.10;99.90
23371;DHT22;11858;51.056;3.712;2023-01-19T02:16:22;3.10;99.90
23371;DHT22;11858;51.056;3.712;2023-01-19T02:18:48;3.30;99.90
23371;DHT22;11858;51.056;3.712;2023-01-19T02:21:21;3.30;99.90
23371;DHT22;11858;51.056;3.712;2023-01-19T02:23:48;3.40;99.90
23371;DHT22;11858;51.056;3.712;2023-01-19T02:26:19;3.40;99.90
23371;DHT22;11858;51.056;3.712;2023-01-19T02:28:49;3.40;99.90
23371;DHT22;11858;51.056;3.712;2023-01-19T02:31:17;3.40;99.90
23371;DHT22;11858;51.056;3.712;2023-01-19T02:33:43;3.50;99.90
23371;DHT22;11858;51.056;3.712;2023-01-19T02:36:09;3.50;99.90
23371;DHT22;11858;51.056;3.712;2023-01-19T02:38:37;3.60;99.90
23371;DHT22;11858;51.056;3.712;2023-01-19T02:41:05;3.50;99.90
23371;DHT22;11858;51.056;3.712;2023-01-19T02:43:32;3.50;99.90
23371;DHT22;11858;51.056;3.712;2023-01-19T02:45:59;3.40;99.90
23371;DHT22;11858;51.056;3.712;2023-01-19T02:48:24;3.40;99.90
23371;DHT22;11858;51.056;3.712;2023-01-19T02:51:01;3.30;99.90
23371;DHT22;11858;51.056;3.712;2023-01-19T02:53:56;3.30;99.90
23371;DHT22;11858;51.056;3.712;2023-01-19T02:56:29;3.40;99.90
23371;DHT22;11858;51.056;3.712;2023-01-19T02:59:19;3.40;99.90
23371;DHT22;11858;51.056;3.712;2023-01-19T03:10:41;3.50;99.90
23371;DHT22;11858;51.056;3.712;2023-01-19T03:15:51;3.60;99.90
23371;DHT22;11858;51.056;3.712;2023-01-19T03:18:21;3.50;99.90
23371;DHT22;11858;51.056;3.712;2023-01-19T03:20:50;3.50;99.90
23371;DHT22;11858;51.056;3.712;2023-01-19T03:23:20;3.60;99.90
23371;DHT22;11858;51.056;3.712;2023-01-19T03:25:49;3.70;99.90
23371;DHT22;11858;51.056;3.712;2023-01-19T03:28:18;3.60;99.90
23371;DHT22;11858;51.056;3.712;2023-01-19T03:30:50;3.60;99.90
23371;DHT22;11858;51.056;3.712;2023-01-19T03:33:38;3.60;99.90
23371;DHT22;11858;51.056;3.712;2023-01-19T03:36:11;3.50;99.90
23371;DHT22;11858;51.056;3.712;2023-01-19T03:38:41;3.50;99.90
23371;DHT22;11858;51.056;3.712;2023-01-19T03:41:12;3.50;99.90
23371;DHT22;11858;51.056;3.712;2023-01-19T03:43:40;3.40;99.90
23371;DHT22;11858;51.056;3.712;2023-01-19T03:46:06;3.30;99.90
23371;DHT22;11858;51.056;3.712;2023-01-19T03:48:32;3.20;99.90
23371;DHT22;11858;51.056;3.712;2023-01-19T03:51:05;3.20;99.90
23371;DHT22;11858;51.056;3.712;2023-01-19T03:53:32;3.00;99.90
23371;DHT22;11858;51.056;3.712;2023-01-19T03:55:58;2.90;99.90
23371;DHT22;11858;51.056;3.712;2023-01-19T03:58:23;3.00;99.90
23371;DHT22;11858;51.056;3.712;2023-01-19T04:00:49;3.00;99.90
23371;DHT22;11858;51.056;3.712;2023-01-19T04:03:16;3.00;99.90
23371;DHT22;11858;51.056;3.712;2023-01-19T04:05:42;2.90;99.90
23371;DHT22;11858;51.056;3.712;2023-01-19T04:08:08;2.80;99.90
23371;DHT22;11858;51.056;3.712;2023-01-19T04:10:34;2.80;99.90
23371;DHT22;11858;51.056;3.712;2023-01-19T04:13:01;2.80;99.90
23371;DHT22;11858;51.056;3.712;2023-01-19T04:15:28;2.80;99.90
23371;DHT22;11858;51.056;3.712;2023-01-19T04:17:56;2.80;99.90
23371;DHT22;11858;51.056;3.712;2023-01-19T04:20:22;2.70;99.90
23371;DHT22;11858;51.056;3.712;2023-01-19T04:22:47;2.60;99.90
23371;DHT22;11858;51.056;3.712;2023-01-19T04:25:14;2.50;99.90
23371;DHT22;11858;51.056;3.712;2023-01-19T04:27:40;2.50;99.90
23371;DHT22;11858;51.056;3.712;2023-01-19T04:30:06;2.50;99.90
23371;DHT22;11858;51.056;3.712;2023-01-19T04:32:32;2.60;99.90
23371;DHT22;11858;51.056;3.712;2023-01-19T04:34:58;2.50;99.90
23371;DHT22;11858;51.056;3.712;2023-01-19T04:37:24;2.40;99.90
23371;DHT22;11858;51.056;3.712;2023-01-19T04:39:49;2.60;99.90
23371;DHT22;11858;51.056;3.712;2023-01-19T04:42:15;2.30;99.90
23371;DHT22;11858;51.056;3.712;2023-01-19T04:44:41;2.30;99.90
23371;DHT22;11858;51.056;3.712;2023-01-19T04:47:07;2.20;99.90
23371;DHT22;11858;51.056;3.712;2023-01-19T04:49:33;2.10;99.90
23371;DHT22;11858;51.056;3.712;2023-01-19T04:52:02;2.10;99.90
23371;DHT22;11858;51.056;3.712;2023-01-19T04:54:28;2.00;99.90
23371;DHT22;11858;51.056;3.712;2023-01-19T04:56:54;2.00;99.90
23371;DHT22;11858;51.056;3.712;2023-01-19T04:59:20;2.20;99.90
23371;DHT22;11858;51.056;3.712;2023-01-19T05:01:46;2.20;99.90
23371;DHT22;11858;51.056;3.712;2023-01-19T05:04:12;2.20;99.90
23371;DHT22;11858;51.056;3.712;2023-01-19T05:06:37;2.30;99.90
23371;DHT22;11858;51.056;3.712;2023-01-19T05:09:03;2.10;99.90
23371;DHT22;11858;51.056;3.712;2023-01-19T05:11:29;2.10;99.90
23371;DHT22;11858;51.056;3.712;2023-01-19T05:13:55;2.10;99.90
23371;DHT22;11858;51.056;3.712;2023-01-19T05:16:20;2.20;99.90
23371;DHT22;11858;51.056;3.712;2023-01-19T05:18:46;2.10;99.90
23371;DHT22;11858;51.056;3.712;2023-01-19T05:21:12;2.30;99.90
23371;DHT22;11858;51.056;3.712;2023-01-19T05:23:40;2.00;99.90
23371;DHT22;11858;51.056;3.712;2023-01-19T05:26:06;2.00;99.90
23371;DHT22;11858;51.056;3.712;2023-01-19T05:28:32;2.00;99.90
23371;DHT22;11858;51.056;3.712;2023-01-19T05:30:58;2.00;99.90
23371;DHT22;11858;51.056;3.712;2023-01-19T05:33:24;2.00;99.90
23371;DHT22;11858;51.056;3.712;2023-01-19T05:35:53;2.00;99.90
23371;DHT22;11858;51.056;3.712;2023-01-19T05:38:20;1.80;99.90
23371;DHT22;11858;51.056;3.712;2023-01-19T05:40:46;1.70;99.90
23371;DHT22;11858;51.056;3.712;2023-01-19T05:43:13;1.80;99.90
23371;DHT22;11858;51.056;3.712;2023-01-19T05:45:39;1.80;99.90
23371;DHT22;11858;51.056;3.712;2023-01-19T05:48:06;1.70;99.90
23371;DHT22;11858;51.056;3.712;2023-01-19T05:50:32;1.70;99.90
23371;DHT22;11858;51.056;3.712;2023-01-19T05:52:59;1.70;99.90
23371;DHT22;11858;51.056;3.712;2023-01-19T05:55:25;1.70;99.90
23371;DHT22;11858;51.056;3.712;2023-01-19T05:57:51;1.70;99.90
23371;DHT22;11858;51.056;3.712;2023-01-19T06:00:17;1.70;99.90
23371;DHT22;11858;51.056;3.712;2023-01-19T06:02:43;1.70;99.90
23371;DHT22;11858;51.056;3.712;2023-01-19T06:05:09;1.90;99.90
23371;DHT22;11858;51.056;3.712;2023-01-19T06:07:35;1.90;99.90
23371;DHT22;11858;51.056;3.712;2023-01-19T06:10:01;2.00;99.90
23371;DHT22;11858;51.056;3.712;2023-01-19T06:12:26;2.10;99.90
23371;DHT22;11858;51.056;3.712;2023-01-19T06:14:52;2.10;99.90
23371;DHT22;11858;51.056;3.712;2023-01-19T06:17:18;2.00;99.90
23371;DHT22;11858;51.056;3.712;2023-01-19T06:19:44;2.00;99.90
23371;DHT22;11858;51.056;3.712;2023-01-19T06:22:10;2.00;99.90
23371;DHT22;11858;51.056;3.712;2023-01-19T06:24:36;2.00;99.90
23371;DHT22;11858;51.056;3.712;2023-01-19T06:27:01;2.10;99.90
23371;DHT22;11858;51.056;3.712;2023-01-19T06:29:27;2.20;99.90
23371;DHT22;11858;51.056;3.712;2023-01-19T06:31:53;2.20;99.90
23371;DHT22;11858;51.056;3.712;2023-01-19T06:34:19;2.10;99.90
23371;DHT22;11858;51.056;3.712;2023-01-19T06:36:45;2.10;99.90
23371;DHT22;11858;51.056;3.712;2023-01-19T06:39:11;2.10;99.90
23371;DHT22;11858;51.056;3.712;2023-01-19T06:41:37;2.30;99.90
23371;DHT22;11858;51.056;3.712;2023-01-19T06:44:03;2.30;99.90
23371;DHT22;11858;51.056;3.712;2023-01-19T06:46:29;2.20;99.90
23371;DHT22;11858;51.056;3.712;2023-01-19T06:48:55;2.20;99.90
23371;DHT22;11858;51.056;3.712;2023-01-19T06:51:21;2.20;99.90
23371;DHT22;11858;51.056;3.712;2023-01-19T06:53:47;2.20;99.90
23371;DHT22;11858;51.056;3.712;2023-01-19T06:56:15;2.20;99.90
23371;DHT22;11858;51.056;3.712;2023-01-19T06:58:40;2.20;99.90
23371;DHT22;11858;51.056;3.712;2023-01-19T07:01:07;2.20;99.90
23371;DHT22;11858;51.056;3.712;2023-01-19T07:03:34;2.20;99.90
23371;DHT22;11858;51.056;3.712;2023-01-19T07:06:01;2.20;99.90
23371;DHT22;11858;51.056;3.712;2023-01-19T07:08:28;2.20;99.90
23371;DHT22;11858;51.056;3.712;2023-01-19T07:11:05;2.20;99.90
23371;DHT22;11858;51.056;3.712;2023-01-19T07:13:32;2.30;99.90
23371;DHT22;11858;51.056;3.712;2023-01-19T07:16:07;2.20;99.90
23371;DHT22;11858;51.056;3.712;2023-01-19T07:18:34;2.20;99.90
23371;DHT22;11858;51.056;3.712;2023-01-19T07:20:59;2.20;99.90
23371;DHT22;11858;51.056;3.712;2023-01-19T07:23:25;2.20;99.90
23371;DHT22;11858;51.056;3.712;2023-01-19T07:25:55;2.40;99.90
23371;DHT22;11858;51.056;3.712;2023-01-19T07:28:21;2.50;99.90
23371;DHT22;11858;51.056;3.712;2023-01-19T07:30:50;2.50;99.90
23371;DHT22;11858;51.056;3.712;2023-01-19T07:33:16;2.40;99.90
23371;DHT22;11858;51.056;3.712;2023-01-19T07:35:46;2.50;99.90
23371;DHT22;11858;51.056;3.712;2023-01-19T07:38:12;2.50;99.90
23371;DHT22;11858;51.056;3.712;2023-01-19T07:40:38;2.50;99.90
23371;DHT22;11858;51.056;3.712;2023-01-19T07:43:03;2.50;99.90
23371;DHT22;11858;51.056;3.712;2023-01-19T07:45:29;2.40;99.90
23371;DHT22;11858;51.056;3.712;2023-01-19T07:47:55;2.40;99.90
23371;DHT22;11858;51.056;3.712;2023-01-19T07:50:21;2.40;99.90
23371;DHT22;11858;51.056;3.712;2023-01-19T07:52:49;2.40;99.90
23371;DHT22;11858;51.056;3.712;2023-01-19T07:55:17;2.40;99.90
23371;DHT22;11858;51.056;3.712;2023-01-19T07:57:43;2.50;99.90
23371;DHT22;11858;51.056;3.712;2023-01-19T08:00:09;2.50;99.90
23371;DHT22;11858;51.056;3.712;2023-01-19T08:02:35;2.50;99.90
23371;DHT22;11858;51.056;3.712;2023-01-19T08:05:02;2.50;99.90
23371;DHT22;11858;51.056;3.712;2023-01-19T08:07:28;2.50;99.90
23371;DHT22;11858;51.056;3.712;2023-01-19T08:09:53;2.50;99.90
23371;DHT22;11858;51.056;3.712;2023-01-19T08:12:19;2.60;99.90
23371;DHT22;11858;51.056;3.712;2023-01-19T08:14:45;2.70;99.90
23371;DHT22;11858;51.056;3.712;2023-01-19T08:17:13;2.60;99.90
23371;DHT22;11858;51.056;3.712;2023-01-19T08:19:40;2.70;99.90
23371;DHT22;11858;51.056;3.712;2023-01-19T08:22:06;2.80;99.90
23371;DHT22;11858;51.056;3.712;2023-01-19T08:24:32;2.90;99.90
23371;DHT22;11858;51.056;3.712;2023-01-19T08:26:59;3.00;99.90
23371;DHT22;11858;51.056;3.712;2023-01-19T08:29:25;3.00;99.90
23371;DHT22;11858;51.056;3.712;2023-01-19T08:31:50;2.90;99.90
23371;DHT22;11858;51.056;3.712;2023-01-19T08:34:20;2.90;99.90
23371;DHT22;11858;51.056;3.712;2023-01-19T08:36:45;3.00;99.90
23371;DHT22;11858;51.056;3.712;2023-01-19T08:39:11;3.00;99.90
23371;DHT22;11858;51.056;3.712;2023-01-19T08:41:37;2.90;99.90
23371;DHT22;11858;51.056;3.712;2023-01-19T08:44:03;2.90;99.90
23371;DHT22;11858;51.056;3.712;2023-01-19T08:46:29;3.10;99.90
23371;DHT22;11858;51.056;3.712;2023-01-19T08:48:55;3.10;99.90
23371;DHT22;11858;51.056;3.712;2023-01-19T08:51:21;3.10;99.90
23371;DHT22;11858;51.056;3.712;2023-01-19T08:53:46;3.00;99.90
23371;DHT22;11858;51.056;3.712;2023-01-19T08:56:12;2.90;99.90
23371;DHT22;11858;51.056;3.712;2023-01-19T08:58:43;2.90;99.90
23371;DHT22;11858;51.056;3.712;2023-01-19T09:01:10;2.90;99.90
23371;DHT22;11858;51.056;3.712;2023-01-19T09:03:38;2.80;99.90
23371;DHT22;11858;51.056;3.712;2023-01-19T09:06:08;2.90;99.90
23371;DHT22;11858;51.056;3.712;2023-01-19T09:08:34;3.00;99.90
23371;DHT22;11858;51.056;3.712;2023-01-19T09:11:00;3.00;99.90
23371;DHT22;11858;51.056;3.712;2023-01-19T09:13:26;3.00;99.90
23371;DHT22;11858;51.056;3.712;2023-01-19T09:15:52;3.10;99.90
23371;DHT22;11858;51.056;3.712;2023-01-19T09:18:20;3.20;99.90
23371;DHT22;11858;51.056;3.712;2023-01-19T09:20:48;3.20;99.90
23371;DHT22;11858;51.056;3.712;2023-01-19T09:23:16;3.30;99.90
23371;DHT22;11858;51.056;3.712;2023-01-19T09:25:43;3.30;99.90
23371;DHT22;11858;51.056;3.712;2023-01-19T09:28:11;3.20;99.90
23371;DHT22;11858;51.056;3.712;2023-01-19T09:30:39;3.20;99.90
23371;DHT22;11858;51.056;3.712;2023-01-19T09:33:07;3.30;99.90
23371;DHT22;11858;51.056;3.712;2023-01-19T09:35:36;3.30;99.90
23371;DHT22;11858;51.056;3.712;2023-01-19T09:38:02;3.20;99.90
23371;DHT22;11858;51.056;3.712;2023-01-19T09:40:28;3.40;99.90
23371;DHT22;11858;51.056;3.712;2023-01-19T09:45:58;3.80;99.90
23371;DHT22;11858;51.056;3.712;2023-01-19T09:48:29;3.90;99.90
23371;DHT22;11858;51.056;3.712;2023-01-19T09:51:01;3.90;99.90
23371;DHT22;11858;51.056;3.712;2023-01-19T09:56:41;3.80;99.90
23371;DHT22;11858;51.056;3.712;2023-01-19T10:04:30;3.90;99.90
23371;DHT22;11858;51.056;3.712;2023-01-19T10:07:07;4.00;99.90
23371;DHT22;11858;51.056;3.712;2023-01-19T10:18:25;4.20;99.90
23371;DHT22;11858;51.056;3.712;2023-01-19T10:21:05;4.10;99.90
23371;DHT22;11858;51.056;3.712;2023-01-19T10:26:55;4.20;99.90
23371;DHT22;11858;51.056;3.712;2023-01-19T10:29:29;4.20;99.90
23371;DHT22;11858;51.056;3.712;2023-01-19T10:32:11;4.10;99.90
23371;DHT22;11858;51.056;3.712;2023-01-19T10:34:38;4.30;99.90
23371;DHT22;11858;51.056;3.712;2023-01-19T10:37:33;4.40;99.90
23371;DHT22;11858;51.056;3.712;2023-01-19T10:42:38;4.60;99.90
23371;DHT22;11858;51.056;3.712;2023-01-19T10:45:17;4.60;99.90
23371;DHT22;11858;51.056;3.712;2023-01-19T10:47:45;4.20;99.90
23371;DHT22;11858;51.056;3.712;2023-01-19T10:50:25;4.00;99.90
23371;DHT22;11858;51.056;3.712;2023-01-19T10:52:54;4.00;99.90
23371;DHT22;11858;51.056;3.712;2023-01-19T10:55:32;3.70;99.90
23371;DHT22;11858;51.056;3.712;2023-01-19T10:57:59;3.80;99.90
23371;DHT22;11858;51.056;3.712;2023-01-19T11:00:39;3.60;99.90
23371;DHT22;11858;51.056;3.712;2023-01-19T11:03:44;3.70;99.90
23371;DHT22;11858;51.056;3.712;2023-01-19T11:08:38;4.10;99.90
23371;DHT22;11858;51.056;3.712;2023-01-19T11:11:04;4.20;99.90
23371;DHT22;11858;51.056;3.712;2023-01-19T11:13:36;4.30;99.90
23371;DHT22;11858;51.056;3.712;2023-01-19T11:16:18;4.40;99.90
23371;DHT22;11858;51.056;3.712;2023-01-19T11:18:52;4.80;99.90
23371;DHT22;11858;51.056;3.712;2023-01-19T11:21:22;5.20;99.90
23371;DHT22;11858;51.056;3.712;2023-01-19T11:23:56;5.30;99.90
23371;DHT22;11858;51.056;3.712;2023-01-19T11:28:59;6.00;99.90
23371;DHT22;11858;51.056;3.712;2023-01-19T11:34:33;6.70;99.90
23371;DHT22;11858;51.056;3.712;2023-01-19T11:39:49;6.90;99.90
23371;DHT22;11858;51.056;3.712;2023-01-19T11:42:16;7.30;99.90
23371;DHT22;11858;51.056;3.712;2023-01-19T11:45:11;7.50;99.90
23371;DHT22;11858;51.056;3.712;2023-01-19T11:47:47;8.20;99.90
23371;DHT22;11858;51.056;3.712;2023-01-19T11:50:34;8.70;99.90
23371;DHT22;11858;51.056;3.712;2023-01-19T11:53:16;8.80;99.90
23371;DHT22;11858;51.056;3.712;2023-01-19T11:58:17;9.00;99.90
23371;DHT22;11858;51.056;3.712;2023-01-19T12:00:53;9.20;99.90
23371;DHT22;11858;51.056;3.712;2023-01-19T12:03:38;9.40;99.90
23371;DHT22;11858;51.056;3.712;2023-01-19T12:06:30;9.50;99.90
23371;DHT22;11858;51.056;3.712;2023-01-19T12:09:09;10.60;99.90
23371;DHT22;11858;51.056;3.712;2023-01-19T12:11:42;10.70;99.90
23371;DHT22;11858;51.056;3.712;2023-01-19T12:14:32;11.10;99.90
23371;DHT22;11858;51.056;3.712;2023-01-19T12:17:01;10.80;99.90
23371;DHT22;11858;51.056;3.712;2023-01-19T12:19:53;10.20;99.90
23371;DHT22;11858;51.056;3.712;2023-01-19T12:22:21;10.30;99.90
23371;DHT22;11858;51.056;3.712;2023-01-19T12:25:14;10.20;99.90
23371;DHT22;11858;51.056;3.712;2023-01-19T12:27:42;9.30;99.90
23371;DHT22;11858;51.056;3.712;2023-01-19T12:30:23;8.60;99.90
23371;DHT22;11858;51.056;3.712;2023-01-19T12:32:49;7.80;99.90
23371;DHT22;11858;51.056;3.712;2023-01-19T12:35:56;7.70;99.90
23371;DHT22;11858;51.056;3.712;2023-01-19T12:41:27;8.70;99.90
23371;DHT22;11858;51.056;3.712;2023-01-19T12:47:18;10.20;99.90
23371;DHT22;11858;51.056;3.712;2023-01-19T12:58:06;11.50;99.90
23371;DHT22;11858;51.056;3.712;2023-01-19T13:00:41;10.30;99.90
23371;DHT22;11858;51.056;3.712;2023-01-19T13:13:37;8.20;99.90
23371;DHT22;11858;51.056;3.712;2023-01-19T13:19:00;9.90;99.90
23371;DHT22;11858;51.056;3.712;2023-01-19T13:24:03;10.20;99.90
23371;DHT22;11858;51.056;3.712;2023-01-19T13:29:35;10.90;99.90
23371;DHT22;11858;51.056;3.712;2023-01-19T13:32:17;10.80;99.90
23371;DHT22;11858;51.056;3.712;2023-01-19T13:34:50;11.30;99.90
23371;DHT22;11858;51.056;3.712;2023-01-19T13:37:20;11.60;99.90
23371;DHT22;11858;51.056;3.712;2023-01-19T13:39:47;11.30;99.90
23371;DHT22;11858;51.056;3.712;2023-01-19T13:42:32;10.90;99.90
23371;DHT22;11858;51.056;3.712;2023-01-19T13:45:02;10.70;99.90
23371;DHT22;11858;51.056;3.712;2023-01-19T13:47:38;10.30;99.90
23371;DHT22;11858;51.056;3.712;2023-01-19T13:50:12;10.40;99.90
23371;DHT22;11858;51.056;3.712;2023-01-19T13:52:42;11.10;99.90
23371;DHT22;11858;51.056;3.712;2023-01-19T13:55:13;10.20;99.90
23371;DHT22;11858;51.056;3.712;2023-01-19T13:57:42;10.80;99.90
23371;DHT22;11858;51.056;3.712;2023-01-19T14:02:51;9.80;99.90
23371;DHT22;11858;51.056;3.712;2023-01-19T14:08:04;9.90;99.90
23371;DHT22;11858;51.056;3.712;2023-01-19T14:10:30;9.90;99.90
23371;DHT22;11858;51.056;3.712;2023-01-19T14:13:01;9.90;99.90
23371;DHT22;11858;51.056;3.712;2023-01-19T14:15:29;9.90;99.90
23371;DHT22;11858;51.056;3.712;2023-01-19T14:20:39;10.10;99.90
23371;DHT22;11858;51.056;3.712;2023-01-19T14:23:28;10.40;99.90
23371;DHT22;11858;51.056;3.712;2023-01-19T14:25:52;10.60;99.90
23371;DHT22;11858;51.056;3.712;2023-01-19T14:28:34;10.80;99.90
23371;DHT22;11858;51.056;3.712;2023-01-19T14:31:02;11.50;99.90
23371;DHT22;11858;51.056;3.712;2023-01-19T14:33:55;10.90;99.90
23371;DHT22;11858;51.056;3.712;2023-01-19T14:36:34;9.60;99.90
23371;DHT22;11858;51.056;3.712;2023-01-19T14:39:02;9.10;99.90
23371;DHT22;11858;51.056;3.712;2023-01-19T14:41:35;8.30;99.90
23371;DHT22;11858;51.056;3.712;2023-01-19T14:44:09;7.90;99.90
23371;DHT22;11858;51.056;3.712;2023-01-19T14:46:36;7.70;99.90
23371;DHT22;11858;51.056;3.712;2023-01-19T14:49:03;7.70;99.90
23371;DHT22;11858;51.056;3.712;2023-01-19T14:51:30;8.00;99.90
23371;DHT22;11858;51.056;3.712;2023-01-19T14:53:58;8.20;99.90
23371;DHT22;11858;51.056;3.712;2023-01-19T14:56:30;7.40;99.90
23371;DHT22;11858;51.056;3.712;2023-01-19T14:58:58;6.80;99.90
23371;DHT22;11858;51.056;3.712;2023-01-19T15:01:26;6.50;99.90
23371;DHT22;11858;51.056;3.712;2023-01-19T15:03:55;6.30;99.90
23371;DHT22;11858;51.056;3.712;2023-01-19T15:06:23;6.00;99.90
23371;DHT22;11858;51.056;3.712;2023-01-19T15:08:50;5.80;99.90
23371;DHT22;11858;51.056;3.712;2023-01-19T15:13:52;5.70;99.90
23371;DHT22;11858;51.056;3.712;2023-01-19T15:16:20;5.70;99.90
23371;DHT22;11858;51.056;3.712;2023-01-19T15:18:46;5.70;99.90
23371;DHT22;11858;51.056;3.712;2023-01-19T15:21:16;5.80;99.90
23371;DHT22;11858;51.056;3.712;2023-01-19T15:23:47;5.70;99.90
23371;DHT22;11858;51.056;3.712;2023-01-19T15:26:18;5.60;99.90
23371;DHT22;11858;51.056;3.712;2023-01-19T15:28:45;5.50;99.90
23371;DHT22;11858;51.056;3.712;2023-01-19T15:31:19;5.60;99.90
23371;DHT22;11858;51.056;3.712;2023-01-19T15:33:46;5.70;99.90
23371;DHT22;11858;51.056;3.712;2023-01-19T15:36:20;5.60;99.90
23371;DHT22;11858;51.056;3.712;2023-01-19T15:38:46;5.50;99.90
23371;DHT22;11858;51.056;3.712;2023-01-19T15:41:21;5.50;99.90
23371;DHT22;11858;51.056;3.712;2023-01-19T15:43:48;5.50;99.90
23371;DHT22;11858;51.056;3.712;2023-01-19T15:46:14;5.80;99.90
23371;DHT22;11858;51.056;3.712;2023-01-19T15:48:41;5.70;99.90
23371;DHT22;11858;51.056;3.712;2023-01-19T15:51:14;5.30;99.90
23371;DHT22;11858;51.056;3.712;2023-01-19T15:53:43;5.40;99.90
23371;DHT22;11858;51.056;3.712;2023-01-19T15:56:17;5.20;99.90
23371;DHT22;11858;51.056;3.712;2023-01-19T15:58:44;5.00;99.90
23371;DHT22;11858;51.056;3.712;2023-01-19T16:01:15;4.70;99.90
23371;DHT22;11858;51.056;3.712;2023-01-19T16:03:41;4.40;99.90
23371;DHT22;11858;51.056;3.712;2023-01-19T16:06:08;4.50;99.90
23371;DHT22;11858;51.056;3.712;2023-01-19T16:08:35;4.30;99.90
23371;DHT22;11858;51.056;3.712;2023-01-19T16:11:09;4.20;99.90
23371;DHT22;11858;51.056;3.712;2023-01-19T16:13:35;4.00;99.90
23371;DHT22;11858;51.056;3.712;2023-01-19T16:16:13;4.00;99.90
23371;DHT22;11858;51.056;3.712;2023-01-19T16:18:39;3.80;99.90
23371;DHT22;11858;51.056;3.712;2023-01-19T16:21:05;3.80;99.90
23371;DHT22;11858;51.056;3.712;2023-01-19T16:23:31;3.80;99.90
23371;DHT22;11858;51.056;3.712;2023-01-19T16:26:02;3.80;99.90
23371;DHT22;11858;51.056;3.712;2023-01-19T16:28:30;3.70;99.90
23371;DHT22;11858;51.056;3.712;2023-01-19T16:30:56;3.60;99.90
23371;DHT22;11858;51.056;3.712;2023-01-19T16:33:21;3.50;99.90
23371;DHT22;11858;51.056;3.712;2023-01-19T16:35:47;3.50;99.90
23371;DHT22;11858;51.056;3.712;2023-01-19T16:38:14;3.50;99.90
23371;DHT22;11858;51.056;3.712;2023-01-19T16:40:42;3.50;99.90
23371;DHT22;11858;51.056;3.712;2023-01-19T16:43:07;3.60;99.90
23371;DHT22;11858;51.056;3.712;2023-01-19T16:45:33;3.60;99.90
23371;DHT22;11858;51.056;3.712;2023-01-19T16:47:59;3.40;99.90
23371;DHT22;11858;51.056;3.712;2023-01-19T16:50:25;3.40;99.90
23371;DHT22;11858;51.056;3.712;2023-01-19T16:52:55;3.40;99.90
23371;DHT22;11858;51.056;3.712;2023-01-19T16:55:23;3.40;99.90
23371;DHT22;11858;51.056;3.712;2023-01-19T16:57:49;3.30;99.90
23371;DHT22;11858;51.056;3.712;2023-01-19T17:00:15;3.40;99.90
23371;DHT22;11858;51.056;3.712;2023-01-19T17:02:40;3.40;99.90
23371;DHT22;11858;51.056;3.712;2023-01-19T17:05:07;3.40;99.90
23371;DHT22;11858;51.056;3.712;2023-01-19T17:07:33;3.40;99.90
23371;DHT22;11858;51.056;3.712;2023-01-19T17:09:59;3.60;99.90
23371;DHT22;11858;51.056;3.712;2023-01-19T17:12:25;3.50;99.90
23371;DHT22;11858;51.056;3.712;2023-01-19T17:14:50;3.70;99.90
23371;DHT22;11858;51.056;3.712;2023-01-19T17:17:16;3.50;99.90
23371;DHT22;11858;51.056;3.712;2023-01-19T17:19:41;3.50;99.90
23371;DHT22;11858;51.056;3.712;2023-01-19T17:22:09;3.70;99.90
23371;DHT22;11858;51.056;3.712;2023-01-19T17:24:36;3.70;99.90
23371;DHT22;11858;51.056;3.712;2023-01-19T17:27:06;3.60;99.90
23371;DHT22;11858;51.056;3.712;2023-01-19T17:29:32;3.30;99.90
23371;DHT22;11858;51.056;3.712;2023-01-19T17:31:57;3.20;99.90
23371;DHT22;11858;51.056;3.712;2023-01-19T17:34:23;3.10;99.90
23371;DHT22;11858;51.056;3.712;2023-01-19T17:36:49;3.10;99.90
23371;DHT22;11858;51.056;3.712;2023-01-19T17:39:15;3.10;99.90
23371;DHT22;11858;51.056;3.712;2023-01-19T17:41:42;3.00;99.90
23371;DHT22;11858;51.056;3.712;2023-01-19T17:44:09;3.10;99.90
23371;DHT22;11858;51.056;3.712;2023-01-19T17:46:36;3.20;99.90
23371;DHT22;11858;51.056;3.712;2023-01-19T17:49:03;3.20;99.90